Time;durP1;ratioP1;P1;durP2;ratioP2;P2;SDS_P1;SDS_P2;PMS_P1;PMS_P2;Temp;Humidity;BMP_temperature;BMP_pressure;BME280_temperature;BME280_humidity;BME280_pressure;Samples;Min_cycle;Max_cycle;Signal;HPM_P1;HPM_P2
2022/08/04 00:00:39;;;;;;;;;;;;;;;15.46;56.93;97397.28;6223745;28;19925;-66
2022/08/04 00:03:47;;;;;;;;;;;;;;;15.39;57.91;97402.19;6223332;28;20322;-66
2022/08/04 00:07:03;;;;;;;;;;;;;;;15.39;57.15;97401.34;6223537;28;19929;-65
2022/08/04 00:10:05;;;;;;;;;;;;;;;15.40;57.28;97403.03;6223378;28;20398;-65
2022/08/04 00:13:09;;;;;;;;;;;;;;;15.41;57.00;97410.88;6223386;28;20338;-66
2022/08/04 00:16:12;;;;;;;;;;;;;;;15.42;58.91;97406.41;6223514;28;19927;-65
2022/08/04 00:19:22;;;;;;;;;;;;;;;15.44;57.33;97410.63;6222896;28;20477;-66
2022/08/04 00:22:28;;;;;;;;;;;;;;;15.46;57.12;97418.50;6223497;28;19926;-67
2022/08/04 00:25:31;;;;;;;;;;;;;;;15.48;56.92;97411.25;6223291;28;19948;-66
2022/08/04 00:28:36;;;;;;;;;;;;;;;15.52;56.84;97428.63;6222392;28;19926;-66
2022/08/04 00:31:41;;;;;;;;;;;;;;;15.57;56.44;97421.16;6223051;28;19925;-66
2022/08/04 00:35:09;;;;;;;;;;;;;;;15.60;56.49;97426.25;6222097;28;20015;-66
2022/08/04 00:38:16;;;;;;;;;;;;;;;15.61;56.46;97422.63;6221735;28;20403;-65
2022/08/04 00:41:31;;;;;;;;;;;;;;;15.67;56.83;97430.09;6222914;28;19925;-65
2022/08/04 00:44:32;;;;;;;;;;;;;;;15.79;57.95;97424.84;6222160;28;19952;-66
2022/08/04 00:47:41;;;;;;;;;;;;;;;15.78;57.89;97429.31;6222779;28;19925;-66
2022/08/04 00:50:58;;;;;;;;;;;;;;;15.79;57.90;97440.75;6222637;28;20016;-66
2022/08/04 00:54:02;;;;;;;;;;;;;;;15.81;57.96;97436.19;6222703;28;19932;-66
2022/08/04 00:57:09;;;;;;;;;;;;;;;15.90;57.51;97432.81;6222391;28;19930;-64
2022/08/04 01:00:13;;;;;;;;;;;;;;;16.01;56.99;97443.44;6222412;28;19925;-65
2022/08/04 01:03:25;;;;;;;;;;;;;;;16.09;56.88;97433.09;6222715;28;19925;-65
2022/08/04 01:06:40;;;;;;;;;;;;;;;16.19;56.52;97433.19;6222158;28;20027;-65
2022/08/04 01:09:44;;;;;;;;;;;;;;;16.30;56.67;97435.00;6222084;28;19925;-66
2022/08/04 01:12:48;;;;;;;;;;;;;;;16.34;56.26;97429.34;6221696;28;19936;-66
2022/08/04 01:16:06;;;;;;;;;;;;;;;16.43;56.32;97430.41;6222307;28;19926;-66
2022/08/04 01:19:30;;;;;;;;;;;;;;;16.63;56.26;97430.63;6222171;28;19921;-66
2022/08/04 01:22:31;;;;;;;;;;;;;;;16.78;55.24;97438.22;6201222;28;19944;-66
2022/08/04 01:25:32;;;;;;;;;;;;;;;16.88;55.14;97435.69;6222201;28;19929;-66
2022/08/04 01:28:54;;;;;;;;;;;;;;;16.95;55.01;97442.19;6221876;28;20306;-65
2022/08/04 01:31:58;;;;;;;;;;;;;;;17.02;55.10;97437.22;6221631;28;20391;-66
2022/08/04 01:35:06;;;;;;;;;;;;;;;17.05;55.11;97435.16;6221964;28;19925;-65
2022/08/04 01:38:17;;;;;;;;;;;;;;;17.14;55.14;97440.69;6221967;28;19932;-65
2022/08/04 01:41:23;;;;;;;;;;;;;;;17.25;54.81;97440.63;6221690;28;19969;-66
2022/08/04 01:44:27;;;;;;;;;;;;;;;17.35;54.59;97444.19;6221303;28;19948;-65
2022/08/04 01:47:35;;;;;;;;;;;;;;;17.45;54.49;97439.81;6221977;28;20085;-66
2022/08/04 01:50:37;;;;;;;;;;;;;;;17.56;54.29;97440.75;6221572;28;19979;-68
2022/08/04 01:53:44;;;;;;;;;;;;;;;17.59;54.41;97440.47;6221362;28;19925;-66
2022/08/04 01:56:52;;;;;;;;;;;;;;;17.63;54.46;97447.22;6224056;28;19925;-66
2022/08/04 01:59:53;;;;;;;;;;;;;;;17.68;54.34;97450.34;6224775;28;20403;-65
2022/08/04 02:02:55;;;;;;;;;;;;;;;17.70;54.40;97445.75;6226343;28;19925;-66
2022/08/04 02:06:16;;;;;;;;;;;;;;;17.76;54.30;97445.22;6226334;28;19932;-66
2022/08/04 02:09:25;;;;;;;;;;;;;;;17.80;54.13;97448.50;6226361;28;20391;-66
2022/08/04 02:12:34;;;;;;;;;;;;;;;17.84;54.34;97449.94;6226316;28;19932;-66
2022/08/04 02:15:57;;;;;;;;;;;;;;;17.90;53.98;97450.25;6225712;28;19929;-66
2022/08/04 02:19:13;;;;;;;;;;;;;;;17.98;53.88;97456.75;6224956;28;19965;-65
2022/08/04 02:22:17;;;;;;;;;;;;;;;18.03;53.52;97462.50;6226241;28;19926;-66
2022/08/04 02:25:24;;;;;;;;;;;;;;;18.07;53.44;97466.59;6225742;28;20307;-66
2022/08/04 02:28:37;;;;;;;;;;;;;;;18.10;53.94;97475.16;6225864;28;19948;-66
2022/08/04 02:31:56;;;;;;;;;;;;;;;18.16;53.31;97471.13;6225858;28;19925;-66
2022/08/04 02:35:27;;;;;;;;;;;;;;;18.21;53.48;97474.25;6225850;28;19926;-66
2022/08/04 02:38:34;;;;;;;;;;;;;;;18.20;53.57;97483.19;6216619;28;20315;-65
2022/08/04 02:41:36;;;;;;;;;;;;;;;18.21;53.97;97484.91;6225356;28;19925;-65
2022/08/04 02:44:47;;;;;;;;;;;;;;;18.29;53.75;97486.91;6225505;28;19979;-66
2022/08/04 02:47:52;;;;;;;;;;;;;;;18.33;53.67;97478.50;6225013;28;19925;-66
2022/08/04 02:50:57;;;;;;;;;;;;;;;18.43;53.70;97483.03;6225263;28;20315;-66
2022/08/04 02:54:03;;;;;;;;;;;;;;;18.49;53.39;97490.50;6223683;28;20019;-65
2022/08/04 02:57:08;;;;;;;;;;;;;;;18.59;53.29;97478.03;6225022;28;20340;-66
2022/08/04 03:00:17;;;;;;;;;;;;;;;18.62;53.32;97488.44;6225112;28;20427;-67
2022/08/04 03:03:54;;;;;;;;;;;;;;;18.80;52.73;97486.84;6224515;28;20323;-66
2022/08/04 03:06:57;;;;;;;;;;;;;;;19.04;52.20;97489.16;6173628;28;19926;-65
2022/08/04 03:10:17;;;;;;;;;;;;;;;19.20;52.22;97485.97;6173641;28;19926;-66
2022/08/04 03:13:21;;;;;;;;;;;;;;;19.38;51.71;97495.94;6173216;28;19926;-66
2022/08/04 03:16:37;;;;;;;;;;;;;;;19.46;51.43;97493.41;6224353;28;20303;-67
2022/08/04 03:19:52;;;;;;;;;;;;;;;19.52;51.65;97498.19;6224447;28;19932;-66
2022/08/04 03:23:02;;;;;;;;;;;;;;;19.64;51.13;97494.38;6224426;28;19925;-67
2022/08/04 03:26:19;;;;;;;;;;;;;;;19.76;51.13;97497.81;6224402;28;20009;-66
2022/08/04 03:29:35;;;;;;;;;;;;;;;19.89;51.17;97505.53;6224168;28;19925;-65
2022/08/04 03:32:48;;;;;;;;;;;;;;;20.07;50.77;97509.16;6224324;28;20035;-66
2022/08/04 03:36:09;;;;;;;;;;;;;;;20.23;50.21;97502.38;6224318;28;20023;-66
2022/08/04 03:39:24;;;;;;;;;;;;;;;20.45;50.21;97507.38;6223986;28;19929;-66
2022/08/04 03:42:30;;;;;;;;;;;;;;;20.58;49.56;97512.41;6223863;28;19925;-66
2022/08/04 03:45:52;;;;;;;;;;;;;;;20.67;49.28;97514.22;6223704;28;19926;-65
2022/08/04 03:48:53;;;;;;;;;;;;;;;20.70;49.39;97510.41;6222223;28;20380;-65
2022/08/04 03:55:51;;;;;;;;;;;;;;;20.82;49.17;97510.06;6223622;28;19933;-67
2022/08/04 03:59:07;;;;;;;;;;;;;;;20.93;49.04;97519.72;6223576;28;20417;-65
2022/08/04 04:02:27;;;;;;;;;;;;;;;20.98;49.32;97509.44;6222241;28;20008;-66
2022/08/04 04:05:46;;;;;;;;;;;;;;;20.94;49.23;97510.69;6223545;28;19933;-65
2022/08/04 04:09:17;;;;;;;;;;;;;;;20.98;49.05;97508.59;6223529;28;19926;-65
2022/08/04 04:12:34;;;;;;;;;;;;;;;21.08;49.10;97512.88;6223306;28;19925;-67
2022/08/04 04:15:38;;;;;;;;;;;;;;;21.26;48.67;97517.44;6223400;28;19925;-66
2022/08/04 04:18:50;;;;;;;;;;;;;;;21.41;48.18;97515.94;6222428;28;19979;-66
2022/08/04 04:21:58;;;;;;;;;;;;;;;21.52;48.24;97518.41;6223046;28;19925;-67
2022/08/04 04:25:02;;;;;;;;;;;;;;;21.60;48.11;97514.09;6222871;28;20025;-66
2022/08/04 04:28:27;;;;;;;;;;;;;;;21.72;47.80;97515.56;6223115;28;19925;-67
2022/08/04 04:31:28;;;;;;;;;;;;;;;21.90;47.48;97520.91;6222874;28;19925;-66
2022/08/04 04:34:41;;;;;;;;;;;;;;;22.12;47.25;97516.91;6223101;28;19929;-66
2022/08/04 04:38:01;;;;;;;;;;;;;;;22.41;46.55;97509.41;6222567;28;20387;-66
2022/08/04 04:41:05;;;;;;;;;;;;;;;22.71;46.26;97517.97;6222852;28;19930;-65
2022/08/04 04:44:09;;;;;;;;;;;;;;;22.97;45.79;97509.91;6222571;28;19932;-67
2022/08/04 04:47:36;;;;;;;;;;;;;;;23.56;44.81;97512.59;6221517;28;19925;-67
2022/08/04 04:51:04;;;;;;;;;;;;;;;25.53;42.06;97521.97;6207539;28;20244;-65
2022/08/04 04:54:10;;;;;;;;;;;;;;;27.92;38.37;97519.25;6222412;28;20343;-66
2022/08/04 04:57:17;;;;;;;;;;;;;;;29.03;36.71;97526.78;6222353;28;20012;-67
2022/08/04 05:00:23;;;;;;;;;;;;;;;29.19;36.63;97525.63;6222485;28;20320;-66
2022/08/04 05:03:27;;;;;;;;;;;;;;;28.95;36.73;97525.03;6222233;28;19984;-66
2022/08/04 05:06:47;;;;;;;;;;;;;;;28.74;36.91;97522.44;6222151;28;19926;-65
2022/08/04 05:09:57;;;;;;;;;;;;;;;28.68;37.28;97528.63;6222125;28;19925;-68
2022/08/04 05:12:58;;;;;;;;;;;;;;;28.94;36.76;97523.38;6221412;28;19925;-66
2022/08/04 05:16:20;;;;;;;;;;;;;;;29.55;35.97;97519.91;6222026;28;19931;-66
2022/08/04 05:19:29;;;;;;;;;;;;;;;29.52;35.39;97531.97;6222145;28;20067;-65
2022/08/04 05:22:34;;;;;;;;;;;;;;;28.65;36.38;97519.06;6221757;28;20052;-66
2022/08/04 05:25:42;;;;;;;;;;;;;;;27.87;37.90;97515.47;6221708;28;20314;-67
2022/08/04 05:28:55;;;;;;;;;;;;;;;27.18;38.85;97519.47;6221537;28;19933;-67
2022/08/04 05:31:58;;;;;;;;;;;;;;;26.82;38.71;97517.50;6220753;28;20350;-66
2022/08/04 05:35:03;;;;;;;;;;;;;;;26.72;39.20;97521.50;6221647;28;20383;-67
2022/08/04 05:38:10;;;;;;;;;;;;;;;26.76;39.22;97512.84;6221368;28;19929;-65
2022/08/04 05:41:15;;;;;;;;;;;;;;;26.91;38.87;97515.53;6221392;28;19925;-66
2022/08/04 05:44:21;;;;;;;;;;;;;;;27.42;37.67;97520.97;6221542;28;20002;-66
2022/08/04 05:47:28;;;;;;;;;;;;;;;28.52;36.26;97525.19;6221439;28;19925;-66
2022/08/04 05:50:32;;;;;;;;;;;;;;;30.01;34.16;97529.19;6221346;28;20319;-66
2022/08/04 05:53:33;;;;;;;;;;;;;;;31.40;32.76;97529.09;6221165;28;19926;-66
2022/08/04 05:56:37;;;;;;;;;;;;;;;32.73;30.89;97522.72;6221161;28;19926;-66
2022/08/04 05:59:45;;;;;;;;;;;;;;;33.98;28.41;97530.44;6220984;28;19925;-66
2022/08/04 06:02:49;;;;;;;;;;;;;;;35.03;28.59;97530.81;6221233;28;20031;-66
2022/08/04 06:05:55;;;;;;;;;;;;;;;35.33;28.63;97522.47;6220477;28;19973;-66
2022/08/04 06:08:58;;;;;;;;;;;;;;;34.74;27.93;97522.53;6220905;28;20317;-66
2022/08/04 06:12:05;;;;;;;;;;;;;;;33.33;29.42;97515.81;6220771;28;19930;-67
2022/08/04 06:15:13;;;;;;;;;;;;;;;33.10;30.17;97511.88;6220973;28;20281;-66
2022/08/04 06:18:18;;;;;;;;;;;;;;;34.94;28.29;97522.16;6220919;28;19984;-67
2022/08/04 06:21:27;;;;;;;;;;;;;;;37.53;25.55;97526.94;6219572;28;19926;-67
2022/08/04 06:24:32;;;;;;;;;;;;;;;40.21;22.82;97534.00;6221040;28;19925;-65
2022/08/04 06:27:35;;;;;;;;;;;;;;;42.39;21.66;97536.34;6220062;28;19932;-65
2022/08/04 06:30:46;;;;;;;;;;;;;;;44.41;20.03;97528.97;6220470;28;20307;-66
2022/08/04 06:33:48;;;;;;;;;;;;;;;46.36;18.51;97537.81;6219971;28;20007;-66
2022/08/04 06:36:52;;;;;;;;;;;;;;;47.95;16.23;97527.88;6220744;28;19925;-66
2022/08/04 06:39:57;;;;;;;;;;;;;;;49.73;14.72;97525.63;6220643;28;20347;-66
2022/08/04 06:42:59;;;;;;;;;;;;;;;51.70;13.16;97531.81;6222749;28;20335;-65
2022/08/04 06:46:07;;;;;;;;;;;;;;;53.19;11.24;97532.47;6224697;28;19925;-66
2022/08/04 06:49:12;;;;;;;;;;;;;;;53.92;10.40;97518.94;6225039;28;19925;-65
2022/08/04 06:52:16;;;;;;;;;;;;;;;54.69;9.49;97526.59;6225164;28;20514;-66
2022/08/04 06:55:24;;;;;;;;;;;;;;;55.45;8.57;97523.06;6224767;28;19929;-66
2022/08/04 06:58:32;;;;;;;;;;;;;;;55.74;8.61;97515.03;6224020;28;19960;-65
2022/08/04 07:01:35;;;;;;;;;;;;;;;56.21;7.72;97520.13;6224932;28;19948;-65
2022/08/04 07:04:40;;;;;;;;;;;;;;;56.08;7.10;97515.09;6224647;28;20379;-65
2022/08/04 07:07:46;;;;;;;;;;;;;;;55.80;7.43;97517.16;6224873;28;20019;-66
2022/08/04 07:10:49;;;;;;;;;;;;;;;56.52;6.73;97520.09;6224539;28;20303;-66
2022/08/04 07:13:54;;;;;;;;;;;;;;;57.05;6.76;97516.97;6224343;28;20023;-65
2022/08/04 07:16:57;;;;;;;;;;;;;;;57.88;6.49;97524.09;6224303;28;19925;-66
2022/08/04 07:20:01;;;;;;;;;;;;;;;58.66;4.39;97523.56;6224794;28;19925;-65
2022/08/04 07:23:10;;;;;;;;;;;;;;;58.92;5.38;97518.75;6229083;28;19936;-65
2022/08/04 07:26:16;;;;;;;;;;;;;;;58.19;6.22;97523.44;6230897;28;19932;-66
2022/08/04 07:29:20;;;;;;;;;;;;;;;58.39;5.28;97514.63;6234788;28;20016;-65
2022/08/04 07:32:25;;;;;;;;;;;;;;;58.14;5.35;97521.00;6239758;28;19925;-65
2022/08/04 07:35:30;;;;;;;;;;;;;;;57.44;5.75;97505.19;6230996;28;19925;-65
2022/08/04 07:38:32;;;;;;;;;;;;;;;58.40;5.40;97511.38;6233058;28;19984;-65
2022/08/04 07:41:37;;;;;;;;;;;;;;;58.47;5.07;97504.94;6244151;28;19937;-65
2022/08/04 07:44:39;;;;;;;;;;;;;;;58.45;5.23;97513.03;6249573;28;19925;-65
2022/08/04 07:47:43;;;;;;;;;;;;;;;59.00;5.07;97521.22;6249672;28;19932;-65
2022/08/04 07:50:46;;;;;;;;;;;;;;;59.63;4.38;97523.66;6251124;28;19926;-65
2022/08/04 07:53:53;;;;;;;;;;;;;;;59.73;4.27;97522.81;6252470;28;19913;-65
2022/08/04 07:56:56;;;;;;;;;;;;;;;59.83;4.41;97524.00;6254093;28;19977;-65
2022/08/04 08:00:04;;;;;;;;;;;;;;;59.71;3.76;97514.72;6253775;28;20024;-65
2022/08/04 08:03:09;;;;;;;;;;;;;;;59.77;4.11;97509.41;6252577;28;19971;-65
2022/08/04 08:06:12;;;;;;;;;;;;;;;59.42;4.46;97513.13;6252361;28;19925;-64
2022/08/04 08:09:17;;;;;;;;;;;;;;;58.92;4.29;97502.59;6243481;28;19930;-65
2022/08/04 08:12:21;;;;;;;;;;;;;;;58.69;4.13;97497.28;6234398;28;19925;-65
2022/08/04 08:15:24;;;;;;;;;;;;;;;58.09;4.40;97484.53;6227555;28;19925;-64
2022/08/04 08:18:26;;;;;;;;;;;;;;;58.76;4.19;97488.78;6225550;28;19925;-65
2022/08/04 08:21:30;;;;;;;;;;;;;;;59.45;4.19;97493.22;6229058;28;19925;-65
2022/08/04 08:24:36;;;;;;;;;;;;;;;60.13;4.23;97495.06;6238125;28;19972;-65
2022/08/04 08:27:39;;;;;;;;;;;;;;;60.09;4.27;97499.97;6240407;28;19925;-65
2022/08/04 08:30:42;;;;;;;;;;;;;;;59.45;3.95;97490.38;6234842;28;19926;-65
2022/08/04 08:33:46;;;;;;;;;;;;;;;59.64;4.02;97496.88;6223930;28;19926;-65
2022/08/04 08:36:58;;;;;;;;;;;;;;;60.30;3.69;97497.03;6222267;28;20391;-65
2022/08/04 08:40:18;;;;;;;;;;;;;;;61.16;3.76;97493.63;6223475;28;20395;-64
2022/08/04 08:43:24;;;;;;;;;;;;;;;61.45;3.26;97499.03;6224818;28;19925;-65
2022/08/04 08:46:46;;;;;;;;;;;;;;;60.80;3.36;97493.91;6223442;28;19932;-65
2022/08/04 08:50:10;;;;;;;;;;;;;;;60.24;3.43;97484.47;6222812;28;19926;-65
2022/08/04 08:53:19;;;;;;;;;;;;;;;59.95;3.80;97478.91;6222717;28;20417;-65
2022/08/04 08:56:25;;;;;;;;;;;;;;;60.07;3.67;97482.53;6222513;28;20071;-64
2022/08/04 08:59:47;;;;;;;;;;;;;;;60.19;3.76;97476.38;6223027;28;19970;-65
2022/08/04 09:03:05;;;;;;;;;;;;;;;59.81;3.58;97483.84;6222086;28;20350;-65
2022/08/04 09:06:26;;;;;;;;;;;;;;;58.67;3.89;97480.69;6221974;28;19925;-65
2022/08/04 09:09:32;;;;;;;;;;;;;;;56.71;4.98;97469.03;6222083;28;19926;-65
2022/08/04 09:12:45;;;;;;;;;;;;;;;56.33;5.00;97464.56;6222168;28;19957;-65
2022/08/04 09:15:53;;;;;;;;;;;;;;;56.33;4.51;97459.75;6221950;28;19926;-65
2022/08/04 09:19:04;;;;;;;;;;;;;;;55.37;4.91;97456.44;6220965;28;19926;-66
2022/08/04 09:22:25;;;;;;;;;;;;;;;54.80;5.32;97452.69;6221934;28;19925;-66
2022/08/04 09:25:33;;;;;;;;;;;;;;;54.52;5.43;97450.97;6221838;28;19925;-66
2022/08/04 09:28:51;;;;;;;;;;;;;;;52.24;6.81;97439.63;6221786;28;20331;-65
2022/08/04 09:32:04;;;;;;;;;;;;;;;50.47;7.54;97428.00;6221632;28;19925;-65
2022/08/04 09:35:29;;;;;;;;;;;;;;;49.37;8.03;97419.91;6221629;28;19925;-66
2022/08/04 09:38:40;;;;;;;;;;;;;;;47.82;8.70;97422.88;6220624;28;20023;-65
2022/08/04 09:41:55;;;;;;;;;;;;;;;46.71;9.26;97426.72;6221257;28;19929;-65
2022/08/04 09:45:03;;;;;;;;;;;;;;;45.58;9.97;97412.00;6221415;28;20050;-65
2022/08/04 09:48:11;;;;;;;;;;;;;;;44.86;10.10;97412.69;6221296;28;20315;-65
2022/08/04 09:51:33;;;;;;;;;;;;;;;44.59;10.45;97410.72;6221126;28;19929;-65
2022/08/04 09:54:52;;;;;;;;;;;;;;;45.75;10.04;97411.34;6221100;28;19925;-66
2022/08/04 09:58:11;;;;;;;;;;;;;;;46.82;9.44;97415.28;6221153;28;19929;-66
2022/08/04 10:01:19;;;;;;;;;;;;;;;47.37;9.17;97421.16;6221272;28;19925;-65
2022/08/04 10:04:24;;;;;;;;;;;;;;;48.46;8.70;97428.50;6220854;28;19925;-65
2022/08/04 10:07:41;;;;;;;;;;;;;;;49.09;8.41;97425.16;6220628;28;19925;-65
2022/08/04 10:10:43;;;;;;;;;;;;;;;49.40;8.28;97422.88;6220734;28;19971;-66
2022/08/04 10:13:51;;;;;;;;;;;;;;;48.68;8.35;97429.47;6220644;28;19925;-66
2022/08/04 10:17:17;;;;;;;;;;;;;;;47.82;8.76;97420.09;6222216;28;19929;-66
2022/08/04 10:20:38;;;;;;;;;;;;;;;46.01;9.99;97422.66;6206848;28;19926;-65
2022/08/04 10:23:57;;;;;;;;;;;;;;;43.76;11.05;97412.41;6225738;28;19925;-65
2022/08/04 10:27:20;;;;;;;;;;;;;;;42.60;11.82;97417.19;6225583;28;19929;-65
2022/08/04 10:30:23;;;;;;;;;;;;;;;42.38;11.44;97415.78;6225696;28;19925;-67
2022/08/04 10:33:40;;;;;;;;;;;;;;;43.05;10.88;97415.84;6225372;28;19925;-66
2022/08/04 10:36:56;;;;;;;;;;;;;;;44.00;10.15;97413.16;6225442;28;19925;-65
2022/08/04 10:43:28;;;;;;;;;;;;;;;46.32;9.24;97424.69;6225048;28;20399;-67
2022/08/04 10:46:36;;;;;;;;;;;;;;;47.18;8.71;97432.59;6224973;28;19929;-66
2022/08/04 10:49:45;;;;;;;;;;;;;;;47.32;8.71;97428.88;6225249;28;19929;-65
2022/08/04 10:52:55;;;;;;;;;;;;;;;47.33;8.88;97427.72;6225077;28;20394;-66
2022/08/04 10:56:03;;;;;;;;;;;;;;;47.28;8.88;97431.50;6224615;28;20020;-65
2022/08/04 10:59:11;;;;;;;;;;;;;;;46.87;9.21;97435.44;6224759;28;19925;-65
2022/08/04 11:02:27;;;;;;;;;;;;;;;46.86;8.91;97433.00;6224683;28;20399;-66
2022/08/04 11:05:38;;;;;;;;;;;;;;;46.52;9.09;97428.88;6224738;28;19933;-65
2022/08/04 11:08:50;;;;;;;;;;;;;;;46.04;9.21;97430.38;6224867;28;20310;-66
2022/08/04 11:12:10;;;;;;;;;;;;;;;45.41;9.35;97426.53;6223060;28;19996;-65
2022/08/04 11:15:19;;;;;;;;;;;;;;;44.90;9.60;97421.22;6224470;28;20311;-65
2022/08/04 11:18:38;;;;;;;;;;;;;;;44.88;9.48;97416.00;6224641;28;19925;-66
2022/08/04 11:21:49;;;;;;;;;;;;;;;44.89;9.50;97417.63;6207097;28;20024;-65
2022/08/04 11:25:13;;;;;;;;;;;;;;;45.11;9.71;97424.41;6223157;28;19932;-66
2022/08/04 11:28:19;;;;;;;;;;;;;;;44.67;9.68;97418.31;6223018;28;19930;-67
2022/08/04 11:31:24;;;;;;;;;;;;;;;43.99;10.15;97419.78;6224331;28;19925;-66
2022/08/04 11:34:27;;;;;;;;;;;;;;;43.74;10.16;97420.19;6223859;28;19926;-65
2022/08/04 11:37:49;;;;;;;;;;;;;;;43.76;10.37;97406.84;6224254;28;19926;-66
2022/08/04 11:40:56;;;;;;;;;;;;;;;43.10;10.82;97406.66;6224119;28;19925;-66
2022/08/04 11:43:59;;;;;;;;;;;;;;;42.91;10.96;97405.78;6222597;28;20012;-66
2022/08/04 11:47:06;;;;;;;;;;;;;;;42.78;11.05;97405.38;6223891;28;20387;-65
2022/08/04 11:50:29;;;;;;;;;;;;;;;42.50;11.30;97409.00;6222454;28;19925;-65
2022/08/04 11:53:34;;;;;;;;;;;;;;;41.73;11.86;97402.19;6216599;28;19925;-64
2022/08/04 11:56:36;;;;;;;;;;;;;;;40.85;12.51;97397.38;6222675;28;19925;-66
2022/08/04 11:59:41;;;;;;;;;;;;;;;40.35;12.91;97399.16;6223456;28;20299;-65
2022/08/04 12:02:48;;;;;;;;;;;;;;;39.85;13.18;97392.56;6223313;28;20388;-66
2022/08/04 12:05:53;;;;;;;;;;;;;;;39.23;13.60;97389.66;6223213;28;20387;-66
2022/08/04 12:09:06;;;;;;;;;;;;;;;38.65;14.37;97396.31;6223271;28;19925;-66
2022/08/04 12:12:07;;;;;;;;;;;;;;;37.69;15.10;97392.56;6222755;28;20007;-66
2022/08/04 12:15:22;;;;;;;;;;;;;;;36.88;15.46;97384.25;6222997;28;19932;-66
2022/08/04 12:18:28;;;;;;;;;;;;;;;36.29;16.00;97384.81;6222899;28;20402;-65
2022/08/04 12:21:38;;;;;;;;;;;;;;;35.75;16.28;97390.78;6223085;28;19925;-67
2022/08/04 12:24:46;;;;;;;;;;;;;;;35.50;16.52;97380.19;6222878;28;20322;-65
2022/08/04 12:28:07;;;;;;;;;;;;;;;35.38;16.63;97385.72;6222294;28;19925;-67
2022/08/04 12:31:34;;;;;;;;;;;;;;;35.31;16.64;97396.84;6221901;28;20316;-66
2022/08/04 12:34:40;;;;;;;;;;;;;;;35.42;16.62;97388.84;6220126;28;19925;-65
2022/08/04 12:38:01;;;;;;;;;;;;;;;35.30;16.71;97389.72;6221376;28;19937;-66
2022/08/04 12:41:09;;;;;;;;;;;;;;;35.39;16.52;97386.59;6221948;28;20262;-66
2022/08/04 12:44:12;;;;;;;;;;;;;;;35.51;16.41;97384.59;6222915;28;20314;-65
2022/08/04 12:47:16;;;;;;;;;;;;;;;35.49;16.61;97387.59;6222571;28;20403;-66
2022/08/04 12:50:22;;;;;;;;;;;;;;;34.59;17.29;97385.50;6222314;28;20388;-66
2022/08/04 12:53:31;;;;;;;;;;;;;;;33.53;18.42;97380.81;6222156;28;19925;-65
2022/08/04 12:56:32;;;;;;;;;;;;;;;33.22;18.74;97372.88;6222107;28;19925;-65
2022/08/04 12:59:42;;;;;;;;;;;;;;;33.17;18.72;97370.81;6221973;28;19925;-65
2022/08/04 13:02:50;;;;;;;;;;;;;;;33.41;18.38;97377.19;6222054;28;19930;-65
2022/08/04 13:05:54;;;;;;;;;;;;;;;33.27;18.68;97370.28;6221885;28;19925;-64
2022/08/04 13:09:05;;;;;;;;;;;;;;;32.97;18.64;97362.88;6221719;28;19925;-66
2022/08/04 13:12:17;;;;;;;;;;;;;;;32.59;19.46;97361.28;6221508;28;20008;-66
2022/08/04 13:15:22;;;;;;;;;;;;;;;32.38;19.34;97367.97;6222160;28;19960;-66
2022/08/04 13:18:30;;;;;;;;;;;;;;;32.30;19.43;97367.44;6222176;28;19925;-66
2022/08/04 13:21:33;;;;;;;;;;;;;;;32.16;19.62;97369.50;6221352;28;20457;-66
2022/08/04 13:24:39;;;;;;;;;;;;;;;31.96;20.37;97364.22;6221412;28;20019;-65
2022/08/04 13:27:46;;;;;;;;;;;;;;;31.64;20.46;97368.88;6221105;28;19948;-65
2022/08/04 13:30:53;;;;;;;;;;;;;;;31.40;20.87;97371.34;6220535;28;20402;-66
2022/08/04 13:34:06;;;;;;;;;;;;;;;31.31;20.97;97368.03;6221006;28;19933;-66
2022/08/04 13:37:08;;;;;;;;;;;;;;;30.94;21.39;97363.44;6220358;28;20217;-66
2022/08/04 13:40:11;;;;;;;;;;;;;;;30.48;22.09;97367.16;6220223;28;19932;-66
2022/08/04 13:43:22;;;;;;;;;;;;;;;29.95;22.22;97371.63;6220574;28;19930;-65
2022/08/04 13:46:34;;;;;;;;;;;;;;;29.33;22.94;97370.13;6220692;28;19925;-66
2022/08/04 13:49:37;;;;;;;;;;;;;;;29.12;22.80;97367.59;6220884;28;19925;-66
2022/08/04 13:52:50;;;;;;;;;;;;;;;29.12;23.01;97367.59;6220057;28;19925;-66
2022/08/04 13:55:56;;;;;;;;;;;;;;;28.90;22.99;97370.41;6221033;28;20403;-65
2022/08/04 13:59:01;;;;;;;;;;;;;;;28.92;23.00;97381.03;6220030;28;19932;-66
2022/08/04 14:02:04;;;;;;;;;;;;;;;28.88;22.95;97369.78;6220619;28;19922;-65
2022/08/04 14:05:16;;;;;;;;;;;;;;;28.91;22.67;97377.50;6220763;28;19925;-65
2022/08/04 14:08:20;;;;;;;;;;;;;;;28.88;22.91;97373.34;6220698;28;20307;-66
2022/08/04 14:11:35;;;;;;;;;;;;;;;28.69;22.98;97371.38;6220656;28;19925;-66
2022/08/04 14:14:46;;;;;;;;;;;;;;;28.44;23.22;97360.22;6220814;28;20047;-66
2022/08/04 14:17:48;;;;;;;;;;;;;;;28.07;23.55;97370.38;6220550;28;20399;-66
2022/08/04 14:21:08;;;;;;;;;;;;;;;27.71;24.07;97371.38;6221076;28;19930;-65
2022/08/04 14:24:10;;;;;;;;;;;;;;;27.39;24.41;97378.13;6221044;28;19933;-66
2022/08/04 14:27:13;;;;;;;;;;;;;;;27.17;24.96;97373.75;6220480;28;19925;-66
2022/08/04 14:30:20;;;;;;;;;;;;;;;26.96;24.98;97371.84;6219035;28;19925;-66
2022/08/04 14:33:35;;;;;;;;;;;;;;;26.76;25.05;97372.47;6220769;28;20035;-64
2022/08/04 14:36:40;;;;;;;;;;;;;;;26.61;25.50;97374.34;6220806;28;19929;-64
2022/08/04 14:39:49;;;;;;;;;;;;;;;26.65;25.07;97376.47;6220643;28;19929;-65
2022/08/04 14:42:52;;;;;;;;;;;;;;;26.70;25.17;97372.41;6220895;28;19926;-66
2022/08/04 14:46:03;;;;;;;;;;;;;;;26.73;25.12;97372.84;6220756;28;19926;-67
2022/08/04 14:49:06;;;;;;;;;;;;;;;26.79;25.06;97376.66;6220562;28;19933;-65
2022/08/04 14:52:21;;;;;;;;;;;;;;;26.84;25.09;97372.34;6220638;28;19925;-66
2022/08/04 14:55:23;;;;;;;;;;;;;;;26.85;25.68;97368.63;6220265;28;20005;-65
2022/08/04 14:58:28;;;;;;;;;;;;;;;26.72;25.52;97379.25;6220359;28;19926;-66
2022/08/04 15:01:35;;;;;;;;;;;;;;;26.60;25.66;97375.38;6220815;28;19925;-65
2022/08/04 15:04:37;;;;;;;;;;;;;;;26.49;25.76;97381.22;6223607;28;19926;-66
2022/08/04 15:07:46;;;;;;;;;;;;;;;26.32;25.89;97377.88;6224491;28;19925;-66
2022/08/04 15:10:49;;;;;;;;;;;;;;;26.23;26.15;97377.13;6224356;28;19925;-66
2022/08/04 15:13:52;;;;;;;;;;;;;;;26.03;26.50;97379.53;6224569;28;19925;-66
2022/08/04 15:17:01;;;;;;;;;;;;;;;25.86;26.80;97386.97;6223044;28;19926;-66
2022/08/04 15:20:02;;;;;;;;;;;;;;;25.73;27.23;97371.41;6223989;28;19961;-66
2022/08/04 15:23:09;;;;;;;;;;;;;;;25.62;26.94;97387.16;6224721;28;19925;-65
2022/08/04 15:26:15;;;;;;;;;;;;;;;25.52;27.07;97388.25;6224482;28;20379;-66
2022/08/04 15:29:22;;;;;;;;;;;;;;;25.38;27.48;97378.25;6224047;28;20300;-65
2022/08/04 15:32:28;;;;;;;;;;;;;;;25.23;27.94;97391.69;6224461;28;20359;-65
2022/08/04 15:35:32;;;;;;;;;;;;;;;25.11;28.26;97395.78;6224302;28;19925;-66
2022/08/04 15:38:37;;;;;;;;;;;;;;;24.88;28.49;97384.97;6223834;28;19922;-66
2022/08/04 15:42:00;;;;;;;;;;;;;;;24.71;28.76;97394.13;6222688;28;20079;-64
2022/08/04 15:45:10;;;;;;;;;;;;;;;24.56;28.96;97394.88;6223323;28;19925;-66
2022/08/04 15:48:24;;;;;;;;;;;;;;;24.48;29.10;97400.28;6223305;28;19925;-67
2022/08/04 15:51:31;;;;;;;;;;;;;;;24.36;28.94;97404.34;6220045;28;20399;-67
2022/08/04 15:54:36;;;;;;;;;;;;;;;24.23;29.42;97393.28;6223446;28;20000;-67
2022/08/04 15:57:57;;;;;;;;;;;;;;;24.10;29.38;97404.59;6223588;28;19926;-66
2022/08/04 16:01:00;;;;;;;;;;;;;;;23.97;29.60;97407.81;6223596;28;20338;-65
2022/08/04 16:04:19;;;;;;;;;;;;;;;23.92;30.21;97408.34;6223205;28;20308;-66
2022/08/04 16:07:40;;;;;;;;;;;;;;;23.80;30.04;97408.84;6223558;28;20012;-66
2022/08/04 16:10:48;;;;;;;;;;;;;;;23.70;30.50;97415.22;6223202;28;19925;-66
2022/08/04 16:14:08;;;;;;;;;;;;;;;23.60;30.30;97413.69;6222746;28;20024;-66
2022/08/04 16:17:19;;;;;;;;;;;;;;;23.49;30.75;97422.91;6223276;28;19929;-67
2022/08/04 16:20:24;;;;;;;;;;;;;;;23.35;30.59;97420.88;6223010;28;19926;-66
2022/08/04 16:23:49;;;;;;;;;;;;;;;23.24;30.49;97425.59;6223196;28;20455;-65
2022/08/04 16:26:55;;;;;;;;;;;;;;;23.21;31.05;97419.69;6223002;28;20386;-67
2022/08/04 16:30:06;;;;;;;;;;;;;;;23.14;31.38;97424.91;6222850;28;20011;-65
2022/08/04 16:33:09;;;;;;;;;;;;;;;23.02;31.19;97420.84;6222929;28;19925;-66
2022/08/04 16:36:15;;;;;;;;;;;;;;;22.95;32.17;97419.78;6222714;28;19931;-66